Terminal Aerodrome Forecast
Issued by NWS

Home | Current Version | Previous Version | Text Only | Print | Product List | Glossary On
Versions: 1 2 3 4 5 6 7 8 9 10 11 12 13
260
FTUS44 KTSA 140520
TAFMLC
TAF
KMLC 140520Z 1406/1506 13010KT P6SM OVC040
     FM140900 16013KT P6SM OVC015
     FM141500 17006KT 4SM BR OVC007
     FM150000 02005KT 4SM BR OVC015=

USA.gov is the U.S. government's official web portal to all federal, state and local government web resources and services.